Villeneuve-sur-Lot Airport

LFCW · Lot-et-Garonne, Nouvelle-Aquitaine, 法国

罗盘
风向 的 风向 的 风向 到 风向 250° Villeneuve-sur-Lot Airport 10/28
风: 6 kt, 2 beaufort

5 kt

3 kt
改变
0 2.000 4.000 6.000 8.000 10.000
FEW 1.800 ft
BKN 5.800 ft
METAR LFBA 281130Z AUTO 25006KT 220V280 9999 FEW018/// BKN058/// ///TCU 12/09 Q1018 NOSIG

METAR Villeneuve-sur-Lot Airport - LFCW

Villeneuve-sur-Lot Airport是,法国中的小机场。 该机场有一条跑道: 10/28. 该领域的国际民航组织标志是LFCW.

这份报告是针对2022年11月28日 12:30, 当地时间在Agen-La Garenne Airport进行的。

机场观察

风向为250°,速度为6 kt。 风向在220°和280°之间变化。

可见度为10 km 或者更多。

有几云在1.800 ft的高度 和 碎云在5.800 ft的高度。 破损或更高的上限为5.800 ft。

温度和风寒是12 °C。 露点为9 °C,相对湿度为82%。 海平面上的气压为1018 hPa (QNH)。

白天

今天,太阳从08:09升起,在17:20降落。 这适用于Villeneuve-sur-Lot Airport,世界夏令时可能有所不同。 当地时间与世界标准时间之间的时差为+1 小时。 当前,没有夏令时有效。

公司介绍

在这个机场,你可以找到飞行俱乐部。 本场上唯一已知的公司是Aéroclub de Villeneuve sur Lot - Rogé Air Club。

体会

到Vliegles.nl去找飞行课程,跳伞和其他飞行体验。 浏览页面,了解Villeneuve-sur-Lot Airport附近所有可用的活动。 你也可以使用搜索功能来寻找你所在地附近的特定飞行课程、跳伞或其他飞行体验。

跑道

Id 标题 侧风 逆风 侧风 %
10/28 103°-283° 3 kt 5 kt 54 %

逆风成分最大的方向会被突出显示,并用于横风计算。 这并不一定意味着这个方向在使用。

乌云

1.800 ft FEW 几云
5.800 ft BKN 碎云

温度 & 天气

温度 12 °C
露点 9 °C
相对湿度 82%
Kp-index 3 (0-9)

白天

日出
08:09
中午
12:45
日落
17:21 (4:35)

小工具

你想在你的网站上有一个关于Villeneuve-sur-Lot Airport的当前航空天气(METAR)的小部件吗?

显示HTML代码

我们和第三方通过cookies跟踪您在我们网站上的互联网行为。如果你继续,我们认为你同意我们的饼干政策